Time;durP1;ratioP1;P1;durP2;ratioP2;P2;SDS_P1;SDS_P2;PMS_P1;PMS_P2;Temp;Humidity;BMP_temperature;BMP_pressure;BME280_temperature;BME280_humidity;BME280_pressure;Samples;Min_cycle;Max_cycle;Signal;HPM_P1;HPM_P2
2023/08/20 00:02:10;;;;;;;16.17;14.77;;;26.60;99.90;;;;;;5020809;28;20463;-63
2023/08/20 00:04:37;;;;;;;15.20;13.67;;;26.60;99.90;;;;;;5025648;28;20508;-62
2023/08/20 00:07:05;;;;;;;15.17;13.50;;;26.50;99.90;;;;;;5031044;28;20421;-61
2023/08/20 00:09:35;;;;;;;14.10;12.70;;;26.50;99.90;;;;;;5026975;28;20449;-62
2023/08/20 00:12:05;;;;;;;15.30;13.80;;;26.40;99.90;;;;;;5021965;28;20480;-63
2023/08/20 00:14:54;;;;;;;16.37;14.63;;;26.40;99.90;;;;;;5022354;28;20449;-62
2023/08/20 00:17:21;;;;;;;16.30;14.27;;;26.30;99.90;;;;;;5022741;28;20536;-63
2023/08/20 00:19:51;;;;;;;15.60;14.00;;;26.30;99.90;;;;;;5022822;28;20449;-62
2023/08/20 00:22:18;;;;;;;15.13;13.50;;;26.20;99.90;;;;;;5017173;28;20479;-61
2023/08/20 00:24:46;;;;;;;15.33;13.83;;;26.20;99.90;;;;;;5017734;28;20828;-62
2023/08/20 00:27:14;;;;;;;14.77;13.37;;;26.20;99.90;;;;;;5017145;28;20445;-64
2023/08/20 00:29:41;;;;;;;15.27;13.00;;;26.10;99.90;;;;;;5016938;28;20488;-63
2023/08/20 00:32:08;;;;;;;15.60;14.10;;;26.10;99.90;;;;;;5017090;28;20476;-62
2023/08/20 00:34:35;;;;;;;16.50;14.83;;;26.00;99.90;;;;;;5016182;28;20932;-64
2023/08/20 00:37:02;;;;;;;16.93;15.20;;;26.00;99.90;;;;;;5016422;28;20485;-62
2023/08/20 00:39:29;;;;;;;15.60;13.67;;;25.90;99.90;;;;;;5015514;28;20456;-62
2023/08/20 00:41:56;;;;;;;16.63;14.93;;;25.90;99.90;;;;;;5016325;28;20565;-62
2023/08/20 00:44:25;;;;;;;16.03;14.50;;;25.80;99.90;;;;;;5019553;28;20506;-62
2023/08/20 00:46:53;;;;;;;15.73;14.13;;;25.80;99.90;;;;;;5020158;28;20810;-61
2023/08/20 00:49:19;;;;;;;15.60;14.07;;;25.80;99.90;;;;;;5021617;28;20467;-63
2023/08/20 00:51:47;;;;;;;15.27;13.67;;;25.70;99.90;;;;;;5022427;28;20504;-63
2023/08/20 00:54:14;;;;;;;16.50;14.83;;;25.70;99.90;;;;;;5021121;28;20520;-62
2023/08/20 00:56:41;;;;;;;15.73;14.20;;;25.60;99.90;;;;;;5016980;28;20468;-61
2023/08/20 00:59:08;;;;;;;15.50;14.00;;;25.60;99.90;;;;;;5016065;28;20465;-62
2023/08/20 01:01:37;;;;;;;14.80;13.30;;;25.60;99.90;;;;;;5015729;28;20945;-61
2023/08/20 01:04:04;;;;;;;15.97;13.70;;;25.60;99.90;;;;;;5016050;28;20483;-63
2023/08/20 01:06:45;;;;;;;15.50;13.90;;;25.60;99.90;;;;;;5015570;28;20465;-63
2023/08/20 01:09:22;;;;;;;16.00;13.47;;;25.60;99.90;;;;;;5015672;28;20475;-62
2023/08/20 01:11:57;;;;;;;14.97;13.33;;;25.60;99.90;;;;;;5015851;28;20511;-63
2023/08/20 01:14:24;;;;;;;15.27;13.70;;;25.60;99.90;;;;;;5015573;28;20457;-64
2023/08/20 01:16:52;;;;;;;14.67;13.23;;;25.60;99.90;;;;;;5016644;28;20571;-62
2023/08/20 01:19:20;;;;;;;14.23;12.80;;;25.60;99.90;;;;;;5019417;28;20528;-63
2023/08/20 01:22:02;;;;;;;13.93;12.60;;;25.60;99.90;;;;;;5020018;28;20530;-62
2023/08/20 01:24:45;;;;;;;15.13;12.67;;;25.60;99.90;;;;;;5015739;28;20805;-63
2023/08/20 01:27:27;;;;;;;14.10;12.67;;;25.60;99.90;;;;;;5015275;28;20460;-63
2023/08/20 01:29:56;;;;;;;16.83;11.70;;;25.60;99.90;;;;;;5015695;28;20426;-62
2023/08/20 01:32:24;;;;;;;12.60;11.33;;;25.60;99.90;;;;;;5016313;28;20567;-63
2023/08/20 01:34:53;;;;;;;12.93;11.63;;;25.60;99.90;;;;;;5021671;28;20477;-63
2023/08/20 01:37:23;;;;;;;15.40;12.50;;;25.60;99.90;;;;;;5030180;28;20629;-62
2023/08/20 01:39:49;;;;;;;13.67;12.27;;;25.60;99.90;;;;;;5030050;28;20449;-62
2023/08/20 01:42:16;;;;;;;12.70;11.33;;;25.60;99.90;;;;;;5030255;28;20493;-62
2023/08/20 01:44:43;;;;;;;13.33;12.00;;;25.60;99.90;;;;;;5030747;28;20937;-61
2023/08/20 01:47:12;;;;;;;17.33;12.70;;;25.60;99.90;;;;;;5027895;28;20465;-60
2023/08/20 01:49:38;;;;;;;12.63;10.83;;;25.60;99.90;;;;;;5021446;28;20487;-62
2023/08/20 01:52:06;;;;;;;16.47;12.40;;;25.50;99.90;;;;;;5021033;28;20542;-61
2023/08/20 01:54:33;;;;;;;13.30;12.00;;;25.60;99.90;;;;;;5021631;28;20441;-63
2023/08/20 01:56:59;;;;;;;14.07;12.70;;;25.50;99.90;;;;;;5020074;28;20493;-62
2023/08/20 01:59:26;;;;;;;13.87;12.33;;;25.40;99.90;;;;;;5015199;28;20516;-61
2023/08/20 02:01:53;;;;;;;13.80;12.40;;;25.40;99.90;;;;;;5016357;28;20501;-62
2023/08/20 02:04:22;;;;;;;13.50;12.17;;;25.40;99.90;;;;;;5018056;28;20511;-61
2023/08/20 02:06:48;;;;;;;12.40;11.20;;;25.40;99.90;;;;;;5017912;28;20465;-63
2023/08/20 02:09:16;;;;;;;12.60;11.40;;;25.30;99.90;;;;;;5015726;28;20457;-65
2023/08/20 02:11:43;;;;;;;12.60;11.00;;;25.30;99.90;;;;;;5015562;28;20441;-63
2023/08/20 02:14:10;;;;;;;14.17;12.77;;;25.30;99.90;;;;;;5015062;28;20471;-63
2023/08/20 02:16:37;;;;;;;12.83;11.53;;;25.20;99.90;;;;;;5015185;28;20449;-63
2023/08/20 02:19:06;;;;;;;13.40;12.03;;;25.20;99.90;;;;;;5015112;28;20473;-63
2023/08/20 02:21:34;;;;;;;12.33;11.03;;;25.10;99.90;;;;;;5014703;28;20528;-61
2023/08/20 02:24:02;;;;;;;14.37;12.07;;;25.10;99.90;;;;;;5015169;28;20553;-62
2023/08/20 02:26:28;;;;;;;17.20;12.00;;;25.10;99.90;;;;;;5014977;28;20458;-62
2023/08/20 02:28:55;;;;;;;12.67;11.30;;;25.10;99.90;;;;;;5015547;28;20528;-63
2023/08/20 02:31:22;;;;;;;12.53;11.33;;;25.10;99.90;;;;;;5017772;28;20524;-60
2023/08/20 02:33:49;;;;;;;13.17;11.83;;;25.10;99.90;;;;;;5019076;28;20544;-62
2023/08/20 02:36:16;;;;;;;13.63;12.33;;;25.10;99.90;;;;;;5014870;28;20484;-60
2023/08/20 02:38:46;;;;;;;12.97;11.77;;;25.00;99.90;;;;;;5014373;28;20577;-63
2023/08/20 02:41:13;;;;;;;14.13;10.50;;;25.00;99.90;;;;;;5020646;28;20479;-61
2023/08/20 02:43:40;;;;;;;17.73;12.17;;;25.00;99.90;;;;;;5021218;28;20451;-63
2023/08/20 02:46:07;;;;;;;13.50;11.43;;;25.00;99.90;;;;;;5017058;28;20448;-64
2023/08/20 02:48:34;;;;;;;11.83;10.57;;;24.90;99.90;;;;;;5014387;28;20493;-61
2023/08/20 02:51:02;;;;;;;13.33;11.93;;;24.90;99.90;;;;;;5018628;28;20485;-52
2023/08/20 02:53:29;;;;;;;13.37;11.00;;;24.90;99.90;;;;;;5038518;28;20437;-53
2023/08/20 02:55:57;;;;;;;13.30;12.10;;;24.90;99.90;;;;;;5037798;28;20426;-62
2023/08/20 02:58:24;;;;;;;11.20;10.00;;;24.90;99.90;;;;;;5016243;28;20484;-61
2023/08/20 03:00:51;;;;;;;11.57;10.37;;;24.80;99.90;;;;;;5015555;28;20852;-62
2023/08/20 03:03:18;;;;;;;11.17;10.03;;;24.80;99.90;;;;;;5018959;28;20469;-62
2023/08/20 03:05:45;;;;;;;11.67;10.47;;;24.70;99.90;;;;;;5019089;28;20445;-62
2023/08/20 03:08:12;;;;;;;20.20;12.30;;;24.70;99.90;;;;;;5019142;28;20461;-63
2023/08/20 03:10:39;;;;;;;13.07;10.10;;;24.60;99.90;;;;;;5020635;28;20480;-62
2023/08/20 03:13:07;;;;;;;13.13;11.40;;;24.60;99.90;;;;;;5021430;28;21041;-64
2023/08/20 03:15:34;;;;;;;11.67;10.27;;;24.50;99.90;;;;;;5022836;28;20935;-61
2023/08/20 03:18:01;;;;;;;11.70;10.50;;;24.50;99.90;;;;;;5024148;28;20584;-62
2023/08/20 03:20:28;;;;;;;12.20;10.57;;;24.50;99.90;;;;;;5018585;28;20468;-64
2023/08/20 03:22:55;;;;;;;14.13;11.27;;;24.40;99.90;;;;;;5017589;28;20465;-60
2023/08/20 03:25:21;;;;;;;12.07;9.83;;;24.40;99.90;;;;;;5018714;28;20523;-63
2023/08/20 03:27:48;;;;;;;11.37;10.03;;;24.30;99.90;;;;;;5017857;28;20868;-63
2023/08/20 03:30:17;;;;;;;13.53;10.13;;;24.30;99.90;;;;;;5017995;28;20513;-63
2023/08/20 03:32:44;;;;;;;10.53;9.47;;;24.30;99.90;;;;;;5017617;28;20528;-62
2023/08/20 03:35:11;;;;;;;10.27;9.20;;;24.30;99.90;;;;;;5017328;28;20489;-61
2023/08/20 03:37:37;;;;;;;15.70;9.20;;;24.20;99.90;;;;;;5017596;28;20523;-62
2023/08/20 03:40:05;;;;;;;12.17;10.93;;;24.20;99.90;;;;;;5017639;28;20477;-62
2023/08/20 03:42:32;;;;;;;12.10;9.77;;;24.10;99.90;;;;;;5017551;28;20445;-62
2023/08/20 03:44:59;;;;;;;13.47;9.30;;;24.10;99.90;;;;;;5017634;28;20451;-64
2023/08/20 03:47:27;;;;;;;11.13;9.67;;;24.10;99.90;;;;;;5018319;28;20467;-62
2023/08/20 03:49:54;;;;;;;11.60;9.90;;;24.00;99.90;;;;;;5017968;28;20442;-63
2023/08/20 03:52:21;;;;;;;11.60;10.50;;;24.00;99.90;;;;;;5019849;28;20524;-63
2023/08/20 03:54:48;;;;;;;12.10;9.70;;;24.00;99.90;;;;;;5018566;28;20500;-63
2023/08/20 03:57:15;;;;;;;15.37;9.53;;;24.00;99.90;;;;;;5016971;28;20824;-61
2023/08/20 03:59:42;;;;;;;12.60;11.40;;;23.90;99.90;;;;;;5017454;28;20485;-63
2023/08/20 04:02:08;;;;;;;13.57;11.13;;;23.90;99.90;;;;;;5017601;28;20600;-63
2023/08/20 04:04:37;;;;;;;14.47;10.50;;;23.90;99.90;;;;;;5020217;28;20528;-62
2023/08/20 04:07:04;;;;;;;15.10;10.23;;;23.90;99.90;;;;;;5021538;28;20476;-63
2023/08/20 04:09:33;;;;;;;11.90;10.60;;;23.90;99.90;;;;;;5020836;28;20465;-62
2023/08/20 04:12:00;;;;;;;13.73;11.00;;;23.80;99.90;;;;;;5020997;28;20453;-62
2023/08/20 04:14:27;;;;;;;12.57;10.83;;;23.80;99.90;;;;;;5021073;28;20535;-63
2023/08/20 04:16:54;;;;;;;10.90;9.73;;;23.80;99.90;;;;;;5022851;28;20535;-62
2023/08/20 04:19:20;;;;;;;12.93;11.03;;;23.80;99.90;;;;;;5022192;28;20515;-63
2023/08/20 04:21:49;;;;;;;16.90;9.80;;;23.80;99.90;;;;;;5023022;28;20834;-63
2023/08/20 04:24:16;;;;;;;15.83;11.00;;;23.80;99.90;;;;;;5022468;28;20469;-63
2023/08/20 04:26:43;;;;;;;13.10;10.17;;;23.70;99.90;;;;;;5022458;28;20437;-61
2023/08/20 04:29:10;;;;;;;13.40;11.20;;;23.70;99.90;;;;;;5022882;28;20484;-57
2023/08/20 04:31:37;;;;;;;12.80;11.07;;;23.70;99.90;;;;;;5022571;28;20544;-60
2023/08/20 04:34:04;;;;;;;13.50;10.20;;;23.70;99.90;;;;;;5022822;28;20477;-62
2023/08/20 04:36:31;;;;;;;12.80;10.67;;;23.70;99.90;;;;;;5016695;28;20942;-61
2023/08/20 04:38:59;;;;;;;13.40;10.80;;;23.70;99.90;;;;;;5016106;28;20576;-65
2023/08/20 04:41:26;;;;;;;10.97;9.87;;;23.70;99.90;;;;;;5016532;28;20516;-63
2023/08/20 04:43:56;;;;;;;16.10;11.30;;;23.70;99.90;;;;;;5016088;28;20532;-67
2023/08/20 04:46:22;;;;;;;11.80;10.40;;;23.70;99.90;;;;;;5016097;28;20472;-62
2023/08/20 04:48:49;;;;;;;13.50;11.43;;;23.70;99.90;;;;;;5016050;28;20469;-63
2023/08/20 04:51:16;;;;;;;11.97;10.67;;;23.70;99.90;;;;;;5016460;28;20437;-63
2023/08/20 04:53:43;;;;;;;12.70;9.83;;;23.70;99.90;;;;;;5016259;28;20445;-62
2023/08/20 04:56:11;;;;;;;12.37;10.70;;;23.70;99.90;;;;;;5016119;28;20533;-62
2023/08/20 04:58:38;;;;;;;11.80;10.47;;;23.70;99.90;;;;;;5016179;28;20885;-64
2023/08/20 05:01:06;;;;;;;16.50;11.70;;;23.70;99.90;;;;;;5016876;28;20579;-64
2023/08/20 05:03:33;;;;;;;11.97;10.77;;;23.70;99.90;;;;;;5019132;28;20519;-65
2023/08/20 05:06:00;;;;;;;12.63;10.53;;;23.70;99.90;;;;;;5021116;28;20469;-63
2023/08/20 05:08:26;;;;;;;15.30;11.57;;;23.60;99.90;;;;;;5018036;28;20532;-66
2023/08/20 05:10:53;;;;;;;20.13;11.40;;;23.60;99.90;;;;;;5016939;28;20470;-64
2023/08/20 05:13:22;;;;;;;14.90;11.17;;;23.60;99.90;;;;;;5016050;28;20477;-63
2023/08/20 05:15:48;;;;;;;12.70;10.43;;;23.60;99.90;;;;;;5015879;28;20469;-63
2023/08/20 05:18:15;;;;;;;14.23;11.00;;;23.60;99.90;;;;;;5015443;28;20484;-62
2023/08/20 05:20:42;;;;;;;15.70;13.07;;;23.60;99.90;;;;;;5015649;28;20469;-65
2023/08/20 05:23:09;;;;;;;14.17;11.47;;;23.60;99.90;;;;;;5015480;28;20479;-62
2023/08/20 05:25:36;;;;;;;14.20;12.67;;;23.70;99.90;;;;;;5014983;28;20499;-62
2023/08/20 05:28:04;;;;;;;14.90;12.80;;;23.70;99.90;;;;;;5015672;28;20445;-63
2023/08/20 05:30:34;;;;;;;13.00;11.60;;;23.80;99.90;;;;;;5015836;28;20476;-62
2023/08/20 05:33:01;;;;;;;14.30;11.87;;;23.80;99.90;;;;;;5015236;28;20461;-64
2023/08/20 05:35:28;;;;;;;13.83;12.40;;;23.90;99.90;;;;;;5015569;28;20481;-62
2023/08/20 05:37:55;;;;;;;14.67;11.40;;;23.90;99.90;;;;;;5016010;28;20472;-62
2023/08/20 05:40:22;;;;;;;15.47;11.80;;;24.00;99.90;;;;;;5015499;28;20583;-64
2023/08/20 05:42:49;;;;;;;15.57;12.57;;;24.00;99.90;;;;;;5015575;28;20472;-60
2023/08/20 05:45:16;;;;;;;14.97;11.43;;;24.00;99.90;;;;;;5028716;28;20473;-53
2023/08/20 05:47:44;;;;;;;15.67;12.10;;;24.00;99.90;;;;;;5039310;28;20402;-53
2023/08/20 05:50:11;;;;;;;14.20;11.37;;;24.00;99.90;;;;;;5039129;28;20460;-53
2023/08/20 05:52:38;;;;;;;16.50;12.57;;;24.00;99.90;;;;;;5039254;28;20413;-53
2023/08/20 05:55:06;;;;;;;13.20;11.87;;;24.00;99.90;;;;;;5039133;28;20457;-53
2023/08/20 05:57:33;;;;;;;16.10;12.60;;;24.10;99.90;;;;;;5039187;28;20410;-53
2023/08/20 06:00:00;;;;;;;15.27;11.33;;;24.20;99.90;;;;;;5038993;28;20468;-54
2023/08/20 06:02:27;;;;;;;15.87;11.73;;;24.20;99.90;;;;;;5039119;28;20416;-54
2023/08/20 06:04:58;;;;;;;14.93;12.13;;;24.30;99.90;;;;;;5038868;28;20409;-51
2023/08/20 06:07:25;;;;;;;16.47;12.50;;;24.30;99.90;;;;;;5039056;28;20424;-52
2023/08/20 06:09:51;;;;;;;14.80;11.93;;;24.30;99.90;;;;;;5036923;28;20438;-62
2023/08/20 06:12:18;;;;;;;13.90;11.67;;;24.40;99.90;;;;;;5034798;28;20468;-62
2023/08/20 06:14:45;;;;;;;13.13;11.73;;;24.60;99.90;;;;;;5034889;28;20425;-61
2023/08/20 06:17:12;;;;;;;13.40;11.00;;;24.70;99.90;;;;;;5036359;28;20479;-59
2023/08/20 06:19:39;;;;;;;15.27;12.13;;;24.70;99.90;;;;;;5036123;28;20592;-60
2023/08/20 06:22:07;;;;;;;13.87;11.10;;;24.70;99.90;;;;;;5015675;28;20473;-63
2023/08/20 06:24:34;;;;;;;14.57;12.17;;;24.70;99.90;;;;;;5014685;28;20528;-61
2023/08/20 06:27:01;;;;;;;13.40;12.00;;;24.70;99.90;;;;;;5014685;28;20536;-62
2023/08/20 06:29:28;;;;;;;15.67;12.13;;;24.80;99.90;;;;;;5014930;28;20441;-62
2023/08/20 06:31:55;;;;;;;19.10;10.73;;;24.80;99.90;;;;;;5014542;28;20473;-62
2023/08/20 06:34:22;;;;;;;16.97;10.60;;;24.80;99.90;;;;;;5014624;28;20535;-64
2023/08/20 06:36:50;;;;;;;15.37;11.57;;;24.80;99.90;;;;;;5015918;28;20476;-61
2023/08/20 06:39:19;;;;;;;16.40;12.50;;;24.70;99.90;;;;;;5018840;28;20480;-64
2023/08/20 06:41:46;;;;;;;15.23;13.43;;;24.70;99.90;;;;;;5018723;28;20526;-62
2023/08/20 06:44:13;;;;;;;14.50;11.40;;;24.70;99.90;;;;;;5018388;28;20535;-62
2023/08/20 06:46:41;;;;;;;14.13;11.07;;;24.70;99.90;;;;;;5019580;28;20559;-62
2023/08/20 06:49:08;;;;;;;15.30;12.60;;;24.70;99.90;;;;;;5019749;28;20484;-62
2023/08/20 06:51:34;;;;;;;13.10;11.40;;;24.80;99.90;;;;;;5019035;28;20539;-62
2023/08/20 06:54:05;;;;;;;17.37;13.00;;;24.80;99.90;;;;;;5019021;28;20512;-63
2023/08/20 06:56:34;;;;;;;15.90;11.80;;;24.80;99.90;;;;;;5018638;28;20473;-63
2023/08/20 06:59:02;;;;;;;14.07;11.40;;;24.80;99.90;;;;;;5018026;28;20508;-63
2023/08/20 07:01:30;;;;;;;13.10;11.40;;;24.80;99.90;;;;;;5018206;28;20483;-63
2023/08/20 07:03:57;;;;;;;13.93;11.87;;;24.70;99.90;;;;;;5018345;28;20515;-63
2023/08/20 07:06:24;;;;;;;13.63;12.23;;;24.80;99.90;;;;;;5018025;28;20960;-63
2023/08/20 07:08:51;;;;;;;15.67;11.07;;;24.80;99.90;;;;;;5018055;28;20492;-64
2023/08/20 07:11:18;;;;;;;13.40;11.97;;;24.80;99.90;;;;;;5018182;28;20489;-61
2023/08/20 07:13:46;;;;;;;20.03;12.90;;;24.80;99.90;;;;;;5018043;28;20480;-59
2023/08/20 07:16:15;;;;;;;16.57;11.87;;;24.60;99.90;;;;;;5018399;28;20480;-64
2023/08/20 07:18:42;;;;;;;14.87;11.63;;;24.60;99.90;;;;;;5020658;28;20511;-63
2023/08/20 07:21:09;;;;;;;15.37;11.13;;;24.50;99.90;;;;;;5022155;28;20532;-63
2023/08/20 07:23:36;;;;;;;13.20;10.00;;;24.50;99.90;;;;;;5021657;28;20504;-63
2023/08/20 07:26:07;;;;;;;12.60;10.90;;;24.60;99.90;;;;;;5021932;28;20520;-62
2023/08/20 07:31:20;;;;;;;13.10;10.00;;;24.80;99.90;;;;;;5021477;28;20920;-63
2023/08/20 07:33:47;;;;;;;14.73;11.60;;;24.90;99.90;;;;;;5020466;28;20547;-63
2023/08/20 07:36:15;;;;;;;12.13;10.93;;;24.90;99.90;;;;;;5020752;28;20445;-63
2023/08/20 07:38:42;;;;;;;15.23;12.97;;;24.90;99.90;;;;;;5021212;28;20453;-62
2023/08/20 07:41:09;;;;;;;15.53;11.13;;;25.00;99.90;;;;;;5021504;28;20485;-65
2023/08/20 07:43:36;;;;;;;17.47;10.70;;;25.10;99.90;;;;;;5021210;28;20848;-64
2023/08/20 07:46:04;;;;;;;14.07;11.73;;;25.10;99.90;;;;;;5021126;28;20527;-63
2023/08/20 07:48:32;;;;;;;12.50;10.20;;;25.10;99.90;;;;;;5020657;28;20441;-64
2023/08/20 07:51:00;;;;;;;11.67;10.20;;;25.10;99.90;;;;;;5020734;28;20476;-62
2023/08/20 07:53:27;;;;;;;15.87;11.87;;;25.20;99.90;;;;;;5020902;28;20942;-63
2023/08/20 07:55:54;;;;;;;13.83;12.20;;;25.20;99.90;;;;;;5020295;28;20952;-63
2023/08/20 07:58:21;;;;;;;11.80;10.60;;;25.10;99.90;;;;;;5019641;28;20469;-64
2023/08/20 08:00:48;;;;;;;13.40;10.13;;;25.10;99.90;;;;;;5018580;28;20477;-63
2023/08/20 08:03:16;;;;;;;15.00;11.20;;;25.10;99.90;;;;;;5016867;28;21019;-63
2023/08/20 08:05:47;;;;;;;11.53;9.90;;;25.20;99.90;;;;;;5017263;28;20539;-63
2023/08/20 08:08:15;;;;;;;16.80;11.40;;;25.20;99.90;;;;;;5017253;28;20469;-63
2023/08/20 08:10:44;;;;;;;12.07;9.20;;;25.30;99.90;;;;;;5016824;28;20449;-64
2023/08/20 08:13:11;;;;;;;11.40;9.70;;;25.40;99.90;;;;;;5016751;28;20965;-62
2023/08/20 08:15:38;;;;;;;10.43;9.40;;;25.90;99.90;;;;;;5017576;28;20483;-63
2023/08/20 08:18:05;;;;;;;13.97;10.40;;;26.80;99.90;;;;;;5017204;28;20535;-66
2023/08/20 08:20:33;;;;;;;9.80;8.80;;;27.90;99.90;;;;;;5018312;28;20527;-64
2023/08/20 08:23:01;;;;;;;10.53;9.47;;;28.90;99.90;;;;;;5018083;28;20520;-63
2023/08/20 08:25:29;;;;;;;12.13;9.93;;;29.90;99.90;;;;;;5018808;28;20441;-62
2023/08/20 08:27:55;;;;;;;14.87;8.90;;;30.70;99.90;;;;;;5018518;28;20469;-65
2023/08/20 08:30:23;;;;;;;9.83;8.60;;;30.70;99.90;;;;;;5018338;28;20453;-63
2023/08/20 08:32:49;;;;;;;9.20;8.30;;;30.80;99.90;;;;;;5018372;28;20599;-63
2023/08/20 08:35:18;;;;;;;8.83;7.93;;;31.40;99.90;;;;;;5017400;28;20426;-63
2023/08/20 08:37:45;;;;;;;9.57;8.57;;;32.00;99.90;;;;;;5017055;28;20489;-63
2023/08/20 08:40:14;;;;;;;14.07;8.20;;;32.70;99.90;;;;;;5017592;28;21019;-63
2023/08/20 08:42:42;;;;;;;9.30;6.90;;;33.30;99.90;;;;;;5016679;28;20473;-61
2023/08/20 08:45:11;;;;;;;7.27;6.57;;;33.80;99.90;;;;;;5016644;28;20429;-61
2023/08/20 08:47:40;;;;;;;9.57;7.03;;;34.30;99.90;;;;;;5016021;28;20480;-60
2023/08/20 08:50:10;;;;;;;7.20;6.50;;;34.60;99.90;;;;;;5016237;28;20457;-64
2023/08/20 08:52:38;;;;;;;8.27;7.40;;;35.10;99.90;;;;;;5018164;28;20536;-56
2023/08/20 08:55:08;;;;;;;7.20;6.13;;;35.60;99.50;;;;;;5039821;28;20438;-52
2023/08/20 08:57:36;;;;;;;7.30;6.63;;;36.00;96.80;;;;;;5040117;28;20429;-53
2023/08/20 09:00:04;;;;;;;7.57;6.87;;;36.50;94.10;;;;;;5039138;28;20503;-52
2023/08/20 09:02:31;;;;;;;8.27;7.27;;;36.70;92.40;;;;;;5039887;28;20413;-52
2023/08/20 09:04:59;;;;;;;7.30;6.33;;;36.70;91.20;;;;;;5039996;28;20401;-53
2023/08/20 09:07:26;;;;;;;9.23;6.80;;;36.80;90.50;;;;;;5039902;28;20437;-49
2023/08/20 09:10:00;;;;;;;6.03;5.47;;;36.90;90.00;;;;;;5039908;28;20440;-52
2023/08/20 09:12:27;;;;;;;6.07;5.47;;;36.60;89.70;;;;;;5039869;28;20405;-54
2023/08/20 09:15:00;;;;;;;8.93;6.80;;;36.30;88.90;;;;;;5039734;28;20418;-54
2023/08/20 09:17:27;;;;;;;6.10;5.50;;;35.80;88.60;;;;;;5039841;28;20436;-51
2023/08/20 09:19:57;;;;;;;6.50;5.80;;;35.40;90.00;;;;;;5039662;28;20453;-50
2023/08/20 09:22:24;;;;;;;7.30;6.53;;;35.00;90.00;;;;;;5039734;28;20492;-53
2023/08/20 09:24:55;;;;;;;7.83;6.20;;;34.30;91.70;;;;;;5039649;28;20413;-53
2023/08/20 09:27:22;;;;;;;6.60;6.00;;;34.00;92.90;;;;;;5039646;28;20412;-55
2023/08/20 09:29:50;;;;;;;6.10;5.17;;;33.50;93.60;;;;;;5022167;28;20828;-62
2023/08/20 09:32:20;;;;;;;5.90;5.30;;;33.10;95.40;;;;;;5015744;28;20502;-60
2023/08/20 09:34:48;;;;;;;6.90;5.83;;;33.40;96.30;;;;;;5015323;28;20456;-61
2023/08/20 09:37:16;;;;;;;5.90;5.30;;;33.90;95.90;;;;;;5015633;28;20473;-61
2023/08/20 09:39:43;;;;;;;7.03;5.60;;;34.60;93.80;;;;;;5016761;28;20444;-61
2023/08/20 09:42:11;;;;;;;5.50;5.00;;;35.20;92.20;;;;;;5015623;28;20472;-62
2023/08/20 09:44:40;;;;;;;6.77;6.10;;;35.70;90.50;;;;;;5015958;28;20576;-62
2023/08/20 09:47:08;;;;;;;8.70;5.90;;;36.10;88.30;;;;;;5015786;28;20516;-63
2023/08/20 09:49:40;;;;;;;6.07;5.43;;;36.40;84.10;;;;;;5015727;28;20508;-62
2023/08/20 09:52:08;;;;;;;5.93;5.43;;;36.30;83.10;;;;;;5015348;28;20488;-62
2023/08/20 09:54:51;;;;;;;5.47;4.90;;;36.10;83.10;;;;;;5015449;28;20469;-67
2023/08/20 09:57:28;;;;;;;6.30;5.70;;;36.20;82.70;;;;;;5017038;28;20424;-61
2023/08/20 09:59:56;;;;;;;4.93;4.53;;;36.50;79.80;;;;;;5016589;28;20488;-65
2023/08/20 10:02:23;;;;;;;4.10;3.80;;;36.50;79.50;;;;;;5015473;28;20465;-63
2023/08/20 10:04:53;;;;;;;5.60;3.93;;;35.40;80.30;;;;;;5015209;28;20469;-61
2023/08/20 10:07:21;;;;;;;6.47;5.87;;;35.30;81.60;;;;;;5014975;28;20487;-63
2023/08/20 10:09:51;;;;;;;4.17;3.77;;;35.50;79.00;;;;;;5015033;28;20784;-62
2023/08/20 10:12:19;;;;;;;4.97;4.50;;;35.80;78.40;;;;;;5014849;28;20444;-61
2023/08/20 10:14:46;;;;;;;6.17;4.30;;;36.00;78.50;;;;;;5015250;28;20477;-64
2023/08/20 10:17:15;;;;;;;4.93;4.50;;;36.20;76.60;;;;;;5016571;28;20480;-64
2023/08/20 10:19:42;;;;;;;4.30;3.90;;;36.40;75.00;;;;;;5015956;28;20472;-62
2023/08/20 10:22:12;;;;;;;3.73;3.43;;;36.70;75.30;;;;;;5016228;28;20511;-65
2023/08/20 10:24:47;;;;;;;5.27;3.57;;;36.70;74.80;;;;;;5015088;28;20475;-62
2023/08/20 10:27:26;;;;;;;4.40;3.57;;;36.40;74.10;;;;;;5015456;28;20515;-64
2023/08/20 10:29:54;;;;;;;5.20;3.57;;;36.30;74.30;;;;;;5015146;28;20500;-64
2023/08/20 10:32:21;;;;;;;5.40;4.33;;;36.10;72.90;;;;;;5015100;28;20944;-65
2023/08/20 10:34:52;;;;;;;8.63;3.93;;;36.00;73.50;;;;;;5014636;28;20481;-62
2023/08/20 10:37:29;;;;;;;6.03;3.70;;;35.90;73.30;;;;;;5015206;28;20842;-59
2023/08/20 10:39:57;;;;;;;4.33;3.20;;;35.80;72.40;;;;;;5014782;28;20559;-60
2023/08/20 10:42:29;;;;;;;3.80;3.40;;;35.50;72.10;;;;;;5015222;28;20457;-62
2023/08/20 10:45:00;;;;;;;4.67;3.27;;;35.10;72.00;;;;;;5014799;28;20511;-63
2023/08/20 10:47:35;;;;;;;2.53;2.33;;;34.90;73.20;;;;;;5015830;28;20449;-62
2023/08/20 10:50:03;;;;;;;4.63;3.60;;;34.80;74.00;;;;;;5016796;28;20464;-61
2023/08/20 10:52:31;;;;;;;3.43;3.13;;;34.70;74.00;;;;;;5019147;28;20468;-60
2023/08/20 10:54:58;;;;;;;3.83;3.00;;;34.60;73.80;;;;;;5014905;28;20493;-66
2023/08/20 10:57:35;;;;;;;3.90;3.50;;;34.50;73.70;;;;;;5014418;28;20441;-64
2023/08/20 11:00:09;;;;;;;3.40;3.07;;;34.30;75.50;;;;;;5015705;28;20937;-62
2023/08/20 11:02:36;;;;;;;2.90;2.70;;;34.10;75.80;;;;;;5018630;28;20429;-61
2023/08/20 11:05:05;;;;;;;4.37;3.27;;;34.10;76.30;;;;;;5014292;28;20469;-61
2023/08/20 11:07:35;;;;;;;4.80;3.60;;;33.80;75.70;;;;;;5014435;28;20938;-62
2023/08/20 11:10:04;;;;;;;3.33;3.00;;;33.60;77.00;;;;;;5014258;28;21002;-61
2023/08/20 11:12:31;;;;;;;3.40;2.97;;;33.40;77.80;;;;;;5014743;28;20488;-60
2023/08/20 11:15:02;;;;;;;5.10;3.10;;;33.20;80.30;;;;;;5014868;28;20556;-62
2023/08/20 11:17:29;;;;;;;3.83;3.53;;;33.20;80.40;;;;;;5016686;28;20425;-62
2023/08/20 11:19:56;;;;;;;4.30;3.20;;;33.20;80.10;;;;;;5016094;28;20465;-62
2023/08/20 11:22:23;;;;;;;3.33;2.90;;;33.20;79.30;;;;;;5016843;28;20456;-62
2023/08/20 11:24:52;;;;;;;3.60;3.30;;;33.10;78.60;;;;;;5020054;28;20445;-62
2023/08/20 11:27:19;;;;;;;5.80;3.23;;;32.90;78.60;;;;;;5019847;28;20436;-60
2023/08/20 11:29:46;;;;;;;3.00;2.70;;;32.70;78.30;;;;;;5019098;28;20452;-61
2023/08/20 11:32:13;;;;;;;3.80;2.83;;;32.50;80.00;;;;;;5018760;28;20442;-61
2023/08/20 11:34:40;;;;;;;2.90;2.60;;;32.10;80.00;;;;;;5017586;28;20473;-64
2023/08/20 11:37:07;;;;;;;5.50;2.67;;;31.90;82.40;;;;;;5018970;28;20481;-60
2023/08/20 11:39:34;;;;;;;3.40;2.90;;;31.80;80.50;;;;;;5019354;28;20449;-62
2023/08/20 11:42:02;;;;;;;5.93;3.07;;;31.60;80.90;;;;;;5018397;28;20880;-61
2023/08/20 11:44:42;;;;;;;3.37;3.07;;;31.50;81.80;;;;;;5018769;28;20473;-61
2023/08/20 11:47:15;;;;;;;3.50;2.80;;;31.30;82.00;;;;;;5020041;28;20453;-63
2023/08/20 11:49:42;;;;;;;3.47;2.87;;;31.20;83.10;;;;;;5021730;28;20451;-62
2023/08/20 11:52:09;;;;;;;4.50;2.70;;;31.10;84.40;;;;;;5021774;28;20468;-62
2023/08/20 11:54:36;;;;;;;3.37;3.07;;;31.00;84.10;;;;;;5022214;28;20449;-64
2023/08/20 11:57:07;;;;;;;4.20;2.90;;;31.10;85.70;;;;;;5021617;28;20489;-63
2023/08/20 11:59:35;;;;;;;2.77;2.57;;;31.10;85.70;;;;;;5022327;28;20434;-61
2023/08/20 12:02:04;;;;;;;3.50;2.93;;;31.10;85.70;;;;;;5022994;28;20515;-63
2023/08/20 12:04:32;;;;;;;3.80;2.70;;;31.10;85.40;;;;;;5024094;28;20469;-63
2023/08/20 12:07:07;;;;;;;3.13;2.83;;;31.10;85.20;;;;;;5023950;28;20588;-64
2023/08/20 12:09:34;;;;;;;3.00;2.60;;;31.10;85.70;;;;;;5022558;28;20459;-63
2023/08/20 12:12:03;;;;;;;3.37;3.07;;;31.20;88.30;;;;;;5018600;28;20449;-64
2023/08/20 12:14:31;;;;;;;5.97;4.17;;;31.30;85.50;;;;;;5016856;28;20449;-62
2023/08/20 12:16:58;;;;;;;4.23;2.60;;;31.30;85.20;;;;;;5016953;28;20469;-63
2023/08/20 12:19:25;;;;;;;2.83;2.50;;;31.30;83.80;;;;;;5017459;28;20445;-64
2023/08/20 12:21:52;;;;;;;4.43;3.40;;;31.30;83.20;;;;;;5017008;28;20496;-61
2023/08/20 12:24:20;;;;;;;3.50;3.00;;;31.30;84.50;;;;;;5017203;28;20467;-62
2023/08/20 12:26:47;;;;;;;3.20;2.90;;;31.40;83.90;;;;;;5017426;28;20516;-61
2023/08/20 12:29:14;;;;;;;3.50;3.20;;;31.40;83.10;;;;;;5016501;28;20445;-61
2023/08/20 12:31:43;;;;;;;3.50;2.50;;;31.40;83.50;;;;;;5018616;28;20540;-58
2023/08/20 12:34:10;;;;;;;4.30;3.33;;;31.30;81.30;;;;;;5022417;28;20449;-62
2023/08/20 12:36:37;;;;;;;4.90;2.80;;;31.20;82.00;;;;;;5022970;28;20475;-62
2023/08/20 12:39:07;;;;;;;4.43;2.90;;;31.30;83.40;;;;;;5022991;28;20449;-62
2023/08/20 12:41:35;;;;;;;4.27;2.60;;;31.40;84.00;;;;;;5022215;28;20497;-61